Time;durP1;ratioP1;P1;durP2;ratioP2;P2;SDS_P1;SDS_P2;PMS_P1;PMS_P2;Temp;Humidity;BMP_temperature;BMP_pressure;BME280_temperature;BME280_humidity;BME280_pressure;Samples;Min_cycle;Max_cycle;Signal;HPM_P1;HPM_P2
2021/01/25 00:00:02;;;;;;;21.13;12.57;;;2.20;99.90;;;;;;4988121;28;20533;-64
2021/01/25 00:02:27;;;;;;;22.92;12.60;;;2.20;99.90;;;;;;4987333;28;20199;-64
2021/01/25 00:04:53;;;;;;;24.27;14.47;;;2.30;99.90;;;;;;4990006;28;20360;-65
2021/01/25 00:07:18;;;;;;;19.03;11.63;;;2.30;99.90;;;;;;4989801;28;20191;-64
2021/01/25 00:09:44;;;;;;;23.87;14.20;;;2.20;99.90;;;;;;4990797;28;20224;-64
2021/01/25 00:12:10;;;;;;;18.13;11.90;;;2.20;99.90;;;;;;4989126;28;20281;-64
2021/01/25 00:14:35;;;;;;;22.20;13.03;;;2.10;99.90;;;;;;4989407;28;20194;-64
2021/01/25 00:17:01;;;;;;;25.40;14.00;;;2.20;99.90;;;;;;4989758;28;20558;-64
2021/01/25 00:19:27;;;;;;;21.97;13.50;;;2.20;99.90;;;;;;4990411;28;20269;-64
2021/01/25 00:21:53;;;;;;;20.70;13.77;;;2.20;99.90;;;;;;4990458;28;20225;-65
2021/01/25 00:24:18;;;;;;;22.50;15.17;;;2.20;99.90;;;;;;4988081;28;20241;-64
2021/01/25 00:26:44;;;;;;;21.63;12.70;;;2.20;99.90;;;;;;4989255;28;20214;-65
2021/01/25 00:29:09;;;;;;;22.07;12.93;;;2.30;99.90;;;;;;4990291;28;20620;-64
2021/01/25 00:31:35;;;;;;;27.47;13.00;;;2.30;99.90;;;;;;4989167;28;20190;-65
2021/01/25 00:34:01;;;;;;;29.07;16.13;;;2.30;99.90;;;;;;4990509;28;20528;-64
2021/01/25 00:36:26;;;;;;;22.07;13.73;;;2.30;99.90;;;;;;4989800;28;20195;-65
2021/01/25 00:38:52;;;;;;;23.33;14.17;;;2.30;99.90;;;;;;4989778;28;20191;-65
2021/01/25 00:41:17;;;;;;;23.40;14.40;;;2.30;99.90;;;;;;4989265;28;20235;-65
2021/01/25 00:43:45;;;;;;;22.67;13.80;;;2.30;99.90;;;;;;4989801;28;20190;-65
2021/01/25 00:46:11;;;;;;;21.95;14.95;;;2.30;99.90;;;;;;4988845;28;20215;-65
2021/01/25 00:48:36;;;;;;;22.83;14.53;;;2.30;99.90;;;;;;4990037;28;20202;-65
2021/01/25 00:51:02;;;;;;;25.40;15.00;;;2.30;99.90;;;;;;4989778;28;20455;-65
2021/01/25 00:53:28;;;;;;;23.67;14.82;;;2.30;99.90;;;;;;4989761;28;20202;-65
2021/01/25 00:55:53;;;;;;;23.13;13.80;;;2.40;99.90;;;;;;4989818;28;20841;-65
2021/01/25 00:58:19;;;;;;;24.33;15.87;;;2.30;99.90;;;;;;4988417;28;20191;-65
2021/01/25 01:00:45;;;;;;;23.53;14.60;;;2.30;99.90;;;;;;4989434;28;20203;-65
2021/01/25 01:03:10;;;;;;;25.40;13.97;;;2.30;99.90;;;;;;4988072;28;20198;-65
2021/01/25 01:05:36;;;;;;;23.60;14.07;;;2.30;99.90;;;;;;4989429;28;20224;-65
2021/01/25 01:08:02;;;;;;;24.30;15.73;;;2.30;99.90;;;;;;4990277;28;20669;-65
2021/01/25 01:10:28;;;;;;;24.55;15.60;;;2.30;99.90;;;;;;4988741;28;20181;-65
2021/01/25 01:12:54;;;;;;;24.07;15.37;;;2.30;99.90;;;;;;4988812;28;20699;-65
2021/01/25 01:15:19;;;;;;;28.40;16.73;;;2.30;99.90;;;;;;4988127;28;21086;-65
2021/01/25 01:17:45;;;;;;;26.10;16.40;;;2.30;99.90;;;;;;4989051;28;20195;-65
2021/01/25 01:20:11;;;;;;;27.73;16.20;;;2.30;99.90;;;;;;4990211;28;20184;-65
2021/01/25 01:22:37;;;;;;;24.85;15.43;;;2.30;99.90;;;;;;4988719;28;20191;-64
2021/01/25 01:25:06;;;;;;;29.67;16.13;;;2.40;99.90;;;;;;5019872;28;20210;-64
2021/01/25 01:27:32;;;;;;;27.77;16.92;;;2.40;99.90;;;;;;4989455;28;20202;-64
2021/01/25 01:29:58;;;;;;;27.58;16.60;;;2.40;99.90;;;;;;4989157;28;20190;-64
2021/01/25 01:32:24;;;;;;;31.73;17.50;;;2.40;99.90;;;;;;4988243;28;20192;-64
2021/01/25 01:34:49;;;;;;;23.00;15.53;;;2.50;99.90;;;;;;4990023;28;20181;-64
2021/01/25 01:37:15;;;;;;;25.40;16.17;;;2.40;99.90;;;;;;4987920;28;20635;-64
2021/01/25 01:39:41;;;;;;;24.70;15.00;;;2.50;99.90;;;;;;4989088;28;20414;-64
2021/01/25 01:42:13;;;;;;;25.77;16.20;;;2.50;99.90;;;;;;4988689;28;20178;-64
2021/01/25 01:44:38;;;;;;;27.15;15.68;;;2.50;99.90;;;;;;5003019;28;20179;-64
2021/01/25 01:47:04;;;;;;;26.90;15.07;;;2.50;99.90;;;;;;4988829;28;20534;-64
2021/01/25 01:49:30;;;;;;;25.58;16.23;;;2.50;99.90;;;;;;4988927;28;20316;-65
2021/01/25 01:51:55;;;;;;;25.60;15.10;;;2.50;99.90;;;;;;4990005;28;20173;-64
2021/01/25 01:54:21;;;;;;;25.30;15.27;;;2.50;99.90;;;;;;4987759;28;20530;-65
2021/01/25 01:56:47;;;;;;;25.40;14.90;;;2.50;99.90;;;;;;4987183;28;20784;-65
2021/01/25 01:59:12;;;;;;;20.93;13.30;;;2.50;99.90;;;;;;4989629;28;20282;-64
2021/01/25 02:01:38;;;;;;;27.23;14.47;;;2.60;99.90;;;;;;4986909;28;20195;-65
2021/01/25 02:04:04;;;;;;;24.80;15.03;;;2.60;99.90;;;;;;4988090;28;20191;-65
2021/01/25 02:06:31;;;;;;;21.50;14.10;;;2.50;99.90;;;;;;4987013;28;20214;-64
2021/01/25 02:08:58;;;;;;;24.40;14.15;;;2.50;99.90;;;;;;4988384;28;20537;-65
2021/01/25 02:11:26;;;;;;;21.70;13.55;;;2.50;99.90;;;;;;4987411;28;20194;-64
2021/01/25 02:13:52;;;;;;;22.23;15.00;;;2.50;99.90;;;;;;4987318;28;20191;-65
2021/01/25 02:16:17;;;;;;;22.77;13.80;;;2.50;99.90;;;;;;4978738;28;20549;-64
2021/01/25 02:18:43;;;;;;;26.67;15.40;;;2.50;99.90;;;;;;4988115;28;20438;-64
2021/01/25 02:21:12;;;;;;;23.50;14.43;;;2.50;99.90;;;;;;4988192;28;20196;-64
2021/01/25 02:24:01;;;;;;;24.50;14.48;;;2.50;99.90;;;;;;4987965;28;20278;-64
2021/01/25 02:27:00;;;;;;;23.15;15.32;;;2.50;99.90;;;;;;4988585;28;20218;-64
2021/01/25 02:29:26;;;;;;;24.63;14.15;;;2.50;99.90;;;;;;4985935;28;20206;-64
2021/01/25 02:31:53;;;;;;;23.50;14.50;;;2.50;99.90;;;;;;4987138;28;20200;-64
2021/01/25 02:34:19;;;;;;;21.67;13.70;;;2.50;99.90;;;;;;4986957;28;20485;-64
2021/01/25 02:36:46;;;;;;;21.25;13.85;;;2.50;99.90;;;;;;4987685;28;20191;-64
2021/01/25 02:39:13;;;;;;;24.20;14.50;;;2.50;99.90;;;;;;4988380;28;20616;-64
2021/01/25 02:41:40;;;;;;;23.13;14.60;;;2.40;99.90;;;;;;4987943;28;20250;-64
2021/01/25 02:44:07;;;;;;;24.08;15.70;;;2.40;99.90;;;;;;4989036;28;20219;-64
2021/01/25 02:46:34;;;;;;;25.55;16.30;;;2.40;99.90;;;;;;4980370;28;20216;-64
2021/01/25 02:49:00;;;;;;;23.90;15.52;;;2.40;99.90;;;;;;4991609;28;20576;-64
2021/01/25 02:51:25;;;;;;;24.10;14.40;;;2.40;99.90;;;;;;4991890;28;20198;-64
2021/01/25 02:53:51;;;;;;;26.93;15.33;;;2.40;99.90;;;;;;4988267;28;20433;-64
2021/01/25 02:56:17;;;;;;;26.70;15.37;;;2.40;99.90;;;;;;4991878;28;20191;-64
2021/01/25 02:58:44;;;;;;;27.53;15.40;;;2.40;99.90;;;;;;4982168;28;20643;-64
2021/01/25 03:01:10;;;;;;;29.17;16.80;;;2.40;99.90;;;;;;4978432;28;20274;-64
2021/01/25 03:03:36;;;;;;;25.42;15.70;;;2.40;99.90;;;;;;4992240;28;20277;-64
2021/01/25 03:06:02;;;;;;;24.33;14.98;;;2.40;99.90;;;;;;4990244;28;20284;-64
2021/01/25 03:08:28;;;;;;;25.80;16.37;;;2.40;99.90;;;;;;4991121;28;20202;-64
2021/01/25 03:10:55;;;;;;;26.50;15.23;;;2.40;99.90;;;;;;4991633;28;20248;-64
2021/01/25 03:13:27;;;;;;;27.92;16.95;;;2.40;99.90;;;;;;4991023;28;20462;-64
2021/01/25 03:15:56;;;;;;;25.38;15.88;;;2.40;99.90;;;;;;4990140;28;20451;-64
2021/01/25 03:18:22;;;;;;;29.20;17.67;;;2.40;99.90;;;;;;4991005;28;20664;-64
2021/01/25 03:20:51;;;;;;;32.45;17.25;;;2.40;99.90;;;;;;4990497;28;20197;-64
2021/01/25 03:23:17;;;;;;;26.45;16.67;;;2.40;99.90;;;;;;4990332;28;20184;-64
2021/01/25 03:25:44;;;;;;;26.80;16.30;;;2.40;99.90;;;;;;4988364;28;20241;-65
2021/01/25 03:28:10;;;;;;;29.48;17.70;;;2.40;99.90;;;;;;4990805;28;20197;-64
2021/01/25 03:30:36;;;;;;;30.30;16.48;;;2.40;99.90;;;;;;4991826;28;20666;-64
2021/01/25 03:33:03;;;;;;;27.95;16.23;;;2.40;99.90;;;;;;4990689;28;20661;-64
2021/01/25 03:35:29;;;;;;;28.10;17.90;;;2.50;99.90;;;;;;4989787;28;20183;-64
2021/01/25 03:37:55;;;;;;;30.30;17.53;;;2.50;99.90;;;;;;4990315;28;20289;-64
2021/01/25 03:40:20;;;;;;;31.77;18.13;;;2.50;99.90;;;;;;4990007;28;20308;-63
2021/01/25 03:42:46;;;;;;;28.77;16.90;;;2.50;99.90;;;;;;4990788;28;20512;-63
2021/01/25 03:45:12;;;;;;;27.13;16.57;;;2.50;99.90;;;;;;4990721;28;20219;-64
2021/01/25 03:47:37;;;;;;;24.70;16.20;;;2.40;99.90;;;;;;4991233;28;20199;-64
2021/01/25 03:50:04;;;;;;;28.80;16.43;;;2.40;99.90;;;;;;4990500;28;20438;-64
2021/01/25 03:52:30;;;;;;;26.02;15.05;;;2.40;99.90;;;;;;4988639;28;20200;-64
2021/01/25 03:54:56;;;;;;;32.00;16.13;;;2.40;99.90;;;;;;4990766;28;20198;-64
2021/01/25 03:57:21;;;;;;;23.37;14.60;;;2.40;99.90;;;;;;4990232;28;20288;-64
2021/01/25 03:59:47;;;;;;;23.50;14.03;;;2.40;99.90;;;;;;4984714;28;20433;-64
2021/01/25 04:02:13;;;;;;;24.07;13.83;;;2.40;99.90;;;;;;4986474;28;20662;-64
2021/01/25 04:04:42;;;;;;;19.63;12.00;;;2.40;99.90;;;;;;4988473;28;20190;-64
2021/01/25 04:07:10;;;;;;;21.60;13.15;;;2.40;99.90;;;;;;4989888;28;20242;-64
2021/01/25 04:09:36;;;;;;;18.40;12.43;;;2.30;99.90;;;;;;4980435;28;20609;-64
2021/01/25 04:12:02;;;;;;;17.83;11.60;;;2.30;99.90;;;;;;4988344;28;20233;-63
2021/01/25 04:14:28;;;;;;;18.67;10.55;;;2.30;99.90;;;;;;4990856;28;20229;-64
2021/01/25 04:16:53;;;;;;;18.27;11.57;;;2.30;99.90;;;;;;4990066;28;20227;-64
2021/01/25 04:19:19;;;;;;;20.03;12.23;;;2.20;99.90;;;;;;4990160;28;20202;-64
2021/01/25 04:21:45;;;;;;;21.60;11.30;;;2.20;99.90;;;;;;4987140;28;20252;-64
2021/01/25 04:24:10;;;;;;;19.33;11.43;;;2.20;99.90;;;;;;4989293;28;20195;-64
2021/01/25 04:26:41;;;;;;;18.50;12.20;;;2.20;99.90;;;;;;4989186;28;20207;-64
2021/01/25 04:29:10;;;;;;;19.10;12.23;;;2.20;99.90;;;;;;4989084;28;20620;-65
2021/01/25 04:31:36;;;;;;;20.55;11.57;;;2.20;99.90;;;;;;4990219;28;20279;-64
2021/01/25 04:34:02;;;;;;;24.70;12.10;;;2.20;99.90;;;;;;4970887;28;20947;-64
2021/01/25 04:36:28;;;;;;;17.25;11.98;;;2.20;99.90;;;;;;4982757;28;20187;-64
2021/01/25 04:38:53;;;;;;;16.70;11.37;;;2.30;99.90;;;;;;4989782;28;20599;-64
2021/01/25 04:41:19;;;;;;;19.47;11.80;;;2.30;99.90;;;;;;4986475;28;20262;-65
2021/01/25 04:43:46;;;;;;;18.97;11.50;;;2.20;99.90;;;;;;4988109;28;21160;-64
2021/01/25 04:46:13;;;;;;;20.48;11.43;;;2.20;99.90;;;;;;4990156;28;20679;-64
2021/01/25 04:48:43;;;;;;;17.00;11.45;;;2.20;99.90;;;;;;5004903;28;20285;-64
2021/01/25 04:51:09;;;;;;;18.35;11.30;;;2.30;99.90;;;;;;4988183;28;20252;-64
2021/01/25 04:53:37;;;;;;;18.40;11.30;;;2.30;99.90;;;;;;4988425;28;20194;-64
2021/01/25 04:56:04;;;;;;;18.45;11.25;;;2.40;99.90;;;;;;4990035;28;20194;-64
2021/01/25 04:58:29;;;;;;;20.55;11.32;;;2.40;99.90;;;;;;4987872;28;20189;-64
2021/01/25 05:00:55;;;;;;;19.90;11.27;;;2.40;99.90;;;;;;4990232;28;20188;-64
2021/01/25 05:03:21;;;;;;;15.50;11.67;;;2.40;99.90;;;;;;4988489;28;20210;-64
2021/01/25 05:05:46;;;;;;;16.67;10.53;;;2.50;99.90;;;;;;4989257;28;20562;-65
2021/01/25 05:08:12;;;;;;;15.20;10.63;;;2.40;99.70;;;;;;4986718;28;20195;-65
2021/01/25 05:10:38;;;;;;;16.83;11.43;;;2.40;99.40;;;;;;4989736;28;20191;-64
2021/01/25 05:13:04;;;;;;;15.63;10.75;;;2.40;99.90;;;;;;4987391;28;20195;-65
2021/01/25 05:15:32;;;;;;;16.17;10.77;;;2.40;97.70;;;;;;4988046;28;20191;-66
2021/01/25 05:18:02;;;;;;;16.60;10.60;;;2.30;98.00;;;;;;4985822;28;20199;-65
2021/01/25 05:20:29;;;;;;;19.48;11.80;;;2.30;98.40;;;;;;4985426;28;20677;-65
2021/01/25 05:22:56;;;;;;;15.85;11.00;;;2.20;98.00;;;;;;4985724;28;20732;-64
2021/01/25 05:25:24;;;;;;;17.95;11.02;;;2.20;99.00;;;;;;4986802;28;20214;-64
2021/01/25 05:27:50;;;;;;;17.80;10.90;;;2.20;97.40;;;;;;4979370;28;20190;-65
2021/01/25 05:30:16;;;;;;;18.20;11.50;;;2.10;97.50;;;;;;4980766;28;20199;-64
2021/01/25 05:32:45;;;;;;;21.42;11.75;;;2.10;99.00;;;;;;4980543;28;20265;-64
2021/01/25 05:35:11;;;;;;;20.42;10.85;;;2.00;99.90;;;;;;4979959;28;20309;-64
2021/01/25 05:37:36;;;;;;;21.35;11.95;;;2.00;99.90;;;;;;5011661;28;20218;-64
2021/01/25 05:40:03;;;;;;;22.40;12.10;;;2.00;99.90;;;;;;4981862;28;20249;-64
2021/01/25 05:42:33;;;;;;;17.77;11.75;;;1.90;99.90;;;;;;4988901;28;20672;-64
2021/01/25 05:45:10;;;;;;;17.83;11.07;;;2.00;99.90;;;;;;4986891;28;20187;-63
2021/01/25 05:47:50;;;;;;;17.33;10.40;;;2.00;99.90;;;;;;4987649;28;20648;-64
2021/01/25 05:50:35;;;;;;;17.25;10.32;;;2.00;99.90;;;;;;4989074;28;20289;-64
2021/01/25 05:53:05;;;;;;;16.55;10.23;;;2.00;99.90;;;;;;4988319;28;20286;-64
2021/01/25 05:55:32;;;;;;;16.45;10.27;;;2.00;99.90;;;;;;4989253;28;20203;-64
2021/01/25 05:57:58;;;;;;;19.95;11.52;;;2.00;99.90;;;;;;4988524;28;20618;-64
2021/01/25 06:00:26;;;;;;;19.60;11.35;;;2.00;99.90;;;;;;4985990;28;20187;-64
2021/01/25 06:02:53;;;;;;;17.02;10.93;;;2.00;99.90;;;;;;4989018;28;20245;-63
2021/01/25 06:05:30;;;;;;;18.23;11.10;;;2.10;99.90;;;;;;4989413;28;20211;-63
2021/01/25 06:08:03;;;;;;;16.65;10.18;;;2.10;99.90;;;;;;4988430;28;20244;-63
2021/01/25 06:10:41;;;;;;;16.95;11.60;;;2.00;99.90;;;;;;4989110;28;20197;-64
2021/01/25 06:13:14;;;;;;;16.63;10.45;;;2.10;99.90;;;;;;4987597;28;20186;-64
2021/01/25 06:15:41;;;;;;;22.05;11.55;;;2.10;99.90;;;;;;4986563;28;20183;-64
2021/01/25 06:18:07;;;;;;;16.20;10.35;;;2.10;99.90;;;;;;4988590;28;20239;-64
2021/01/25 06:20:35;;;;;;;18.40;11.00;;;2.10;99.90;;;;;;4987501;28;20218;-64
2021/01/25 06:23:02;;;;;;;17.80;11.18;;;2.10;99.90;;;;;;4991032;28;20430;-64
2021/01/25 06:25:29;;;;;;;16.20;10.32;;;2.10;97.10;;;;;;4990072;28;20510;-64
2021/01/25 06:27:56;;;;;;;15.20;10.27;;;2.00;95.00;;;;;;4992057;28;20217;-64
2021/01/25 06:30:24;;;;;;;18.35;10.75;;;2.00;95.10;;;;;;4991705;28;20677;-64
2021/01/25 06:32:51;;;;;;;17.38;11.02;;;2.10;95.60;;;;;;4992856;28;20251;-64
2021/01/25 06:35:17;;;;;;;16.63;10.85;;;2.10;95.80;;;;;;4989730;28;20274;-64
2021/01/25 06:37:51;;;;;;;19.05;11.13;;;2.10;95.10;;;;;;4992753;28;20210;-64
2021/01/25 06:40:24;;;;;;;17.10;11.15;;;2.10;95.30;;;;;;4992519;28;20229;-64
2021/01/25 06:42:49;;;;;;;15.75;10.45;;;2.10;94.90;;;;;;4992281;28;20214;-64
2021/01/25 06:45:15;;;;;;;17.10;11.07;;;2.10;94.60;;;;;;4991922;28;20199;-64
2021/01/25 06:47:41;;;;;;;20.53;12.43;;;2.10;95.00;;;;;;4991559;28;20549;-63
2021/01/25 06:50:08;;;;;;;19.40;11.80;;;2.20;95.50;;;;;;4992656;28;20417;-64
2021/01/25 06:52:38;;;;;;;20.20;10.38;;;2.20;95.80;;;;;;4991656;28;20470;-64
2021/01/25 06:55:07;;;;;;;17.92;10.98;;;2.20;96.00;;;;;;4992343;28;20544;-64
2021/01/25 06:57:37;;;;;;;18.30;11.82;;;2.20;96.50;;;;;;4990142;28;20554;-64
2021/01/25 07:00:06;;;;;;;16.48;11.73;;;2.20;96.40;;;;;;4991418;28;20641;-64
2021/01/25 07:02:32;;;;;;;21.58;11.80;;;2.20;97.10;;;;;;4991442;28;20676;-64
2021/01/25 07:04:58;;;;;;;18.43;11.90;;;2.20;97.10;;;;;;4992552;28;20180;-65
2021/01/25 07:07:29;;;;;;;18.33;11.52;;;2.20;97.20;;;;;;4991120;28;20488;-65
2021/01/25 07:09:57;;;;;;;16.88;10.65;;;2.20;98.30;;;;;;4991288;28;20276;-66
2021/01/25 07:12:26;;;;;;;19.58;11.60;;;2.20;98.60;;;;;;4990401;28;20197;-65
2021/01/25 07:14:53;;;;;;;21.60;12.30;;;2.20;98.60;;;;;;4991313;28;20230;-64
2021/01/25 07:17:19;;;;;;;19.42;11.15;;;2.20;99.10;;;;;;4992391;28;20174;-65
2021/01/25 07:19:44;;;;;;;15.77;11.02;;;2.20;99.30;;;;;;4990270;28;20179;-65
2021/01/25 07:22:11;;;;;;;15.83;10.70;;;2.20;99.10;;;;;;4990363;28;20709;-65
2021/01/25 07:24:39;;;;;;;21.05;11.32;;;2.20;99.90;;;;;;4992211;28;20160;-65
2021/01/25 07:27:05;;;;;;;16.90;10.10;;;2.20;99.90;;;;;;4990619;28;20208;-65
2021/01/25 07:29:31;;;;;;;22.33;12.60;;;2.20;99.90;;;;;;4991690;28;20183;-65
2021/01/25 07:31:58;;;;;;;18.88;12.32;;;2.20;99.90;;;;;;4991858;28;20628;-65
2021/01/25 07:34:25;;;;;;;17.42;10.70;;;2.30;99.90;;;;;;4990793;28;20201;-64
2021/01/25 07:36:51;;;;;;;20.15;11.70;;;2.30;99.90;;;;;;4991296;28;20194;-64
2021/01/25 07:39:19;;;;;;;20.05;11.35;;;2.40;99.30;;;;;;4989288;28;20190;-66
2021/01/25 07:41:45;;;;;;;19.77;11.52;;;2.40;97.60;;;;;;4989219;28;20296;-66
2021/01/25 07:44:13;;;;;;;20.33;12.88;;;2.40;97.00;;;;;;4991446;28;20193;-67
2021/01/25 07:46:40;;;;;;;19.23;12.13;;;2.40;97.10;;;;;;4990700;28;20222;-67
2021/01/25 07:49:06;;;;;;;17.52;11.63;;;2.50;95.50;;;;;;4990883;28;20218;-66
2021/01/25 07:51:33;;;;;;;21.70;11.70;;;2.50;92.60;;;;;;4990720;28;20226;-67
2021/01/25 07:54:00;;;;;;;17.30;11.35;;;2.50;92.90;;;;;;4989512;28;20426;-67
2021/01/25 07:56:27;;;;;;;17.02;10.70;;;2.60;88.50;;;;;;4990942;28;20190;-66
2021/01/25 07:59:19;;;;;;;17.83;11.45;;;2.60;82.20;;;;;;4990475;28;20294;-66
2021/01/25 08:01:51;;;;;;;16.40;11.20;;;2.60;76.00;;;;;;4977794;28;20211;-66
2021/01/25 08:04:21;;;;;;;17.80;11.55;;;2.70;78.20;;;;;;4990888;28;20214;-66
2021/01/25 08:06:47;;;;;;;16.63;10.43;;;2.70;77.20;;;;;;4986457;28;20254;-66
2021/01/25 08:09:18;;;;;;;17.40;11.82;;;2.80;70.10;;;;;;4990638;28;20220;-66
2021/01/25 08:11:44;;;;;;;18.00;11.35;;;2.80;67.60;;;;;;4990534;28;20650;-66
2021/01/25 08:14:19;;;;;;;18.90;11.90;;;2.90;67.40;;;;;;4990731;28;20187;-65
2021/01/25 08:17:01;;;;;;;18.75;10.77;;;2.90;69.70;;;;;;4990244;28;20661;-66
2021/01/25 08:19:36;;;;;;;15.32;9.95;;;3.00;69.00;;;;;;4990549;28;20187;-66
2021/01/25 08:22:08;;;;;;;18.15;12.40;;;3.10;72.70;;;;;;4990487;28;20219;-66
2021/01/25 08:24:34;;;;;;;20.25;13.02;;;3.20;71.00;;;;;;4988844;28;20188;-64
2021/01/25 08:27:15;;;;;;;23.30;13.37;;;3.20;62.90;;;;;;4987827;28;20659;-65
2021/01/25 08:29:43;;;;;;;19.10;11.80;;;3.10;52.00;;;;;;4984766;28;20528;-64
2021/01/25 08:32:38;;;;;;;17.77;11.43;;;3.10;54.60;;;;;;4988448;28;20211;-63
2021/01/25 08:35:06;;;;;;;17.75;11.35;;;3.10;55.80;;;;;;4988986;28;20647;-64
2021/01/25 08:37:33;;;;;;;20.13;12.85;;;3.20;55.00;;;;;;4989563;28;20195;-64
2021/01/25 08:40:14;;;;;;;18.17;12.68;;;3.30;57.50;;;;;;4989494;28;20774;-66
2021/01/25 08:42:40;;;;;;;18.40;10.80;;;3.40;52.40;;;;;;4986227;28;20230;-64
2021/01/25 08:45:25;;;;;;;18.83;12.20;;;3.40;46.50;;;;;;4988847;28;20207;-66
2021/01/25 08:47:51;;;;;;;18.58;11.90;;;3.40;42.30;;;;;;4989104;28;20858;-63
2021/01/25 08:50:27;;;;;;;19.23;12.10;;;3.30;25.70;;;;;;4989404;28;20211;-66
2021/01/25 08:53:02;;;;;;;14.60;9.38;;;3.30;19.10;;;;;;4988202;28;20233;-63
2021/01/25 08:55:42;;;;;;;15.25;9.43;;;3.40;1.00;;;;;;4989526;28;20193;-63
2021/01/25 08:58:31;;;;;;;11.50;8.30;;;3.30;1.00;;;;;;4977502;28;20957;-65
2021/01/25 09:00:58;;;;;;;13.95;10.38;;;3.40;1.00;;;;;;4989049;28;20198;-64
2021/01/25 09:03:24;;;;;;;12.60;9.65;;;3.40;1.00;;;;;;4989193;28;20186;-66
2021/01/25 09:05:54;;;;;;;13.65;9.13;;;3.40;1.00;;;;;;4988971;28;20550;-66
2021/01/25 09:08:21;;;;;;;13.88;8.98;;;3.40;1.00;;;;;;4989347;28;20180;-64
2021/01/25 09:10:48;;;;;;;13.23;9.15;;;3.40;1.00;;;;;;4989023;28;20689;-64
2021/01/25 09:13:14;;;;;;;14.45;9.52;;;3.40;1.00;;;;;;4988948;28;20180;-64
2021/01/25 09:15:40;;;;;;;12.80;9.05;;;3.30;1.00;;;;;;4989018;28;20597;-64
2021/01/25 09:18:07;;;;;;;13.43;9.50;;;3.30;1.00;;;;;;4989360;28;20192;-64
2021/01/25 09:20:33;;;;;;;16.40;10.18;;;3.40;1.00;;;;;;4988606;28;20187;-64
2021/01/25 09:22:59;;;;;;;14.82;9.25;;;3.50;1.00;;;;;;4988726;28;20317;-64
2021/01/25 09:25:25;;;;;;;14.83;9.73;;;3.50;1.00;;;;;;4987570;28;20211;-64
2021/01/25 09:27:51;;;;;;;11.50;9.07;;;3.50;1.00;;;;;;4987527;28;20674;-64
2021/01/25 09:30:18;;;;;;;12.47;8.30;;;3.40;1.00;;;;;;4987951;28;20190;-66
2021/01/25 09:32:47;;;;;;;14.10;9.35;;;3.50;1.00;;;;;;4985890;28;20528;-64
2021/01/25 09:35:18;;;;;;;13.88;8.60;;;3.60;1.00;;;;;;4989378;28;20948;-64
2021/01/25 09:37:43;;;;;;;12.23;8.57;;;3.60;1.00;;;;;;4979591;28;20255;-64
2021/01/25 09:40:10;;;;;;;13.70;9.50;;;3.70;1.00;;;;;;4969749;28;20303;-63
2021/01/25 09:42:36;;;;;;;15.00;10.02;;;3.80;1.00;;;;;;4984420;28;20439;-62
2021/01/25 09:45:02;;;;;;;15.40;9.30;;;3.90;1.00;;;;;;4988961;28;20585;-63
2021/01/25 09:47:27;;;;;;;13.93;9.55;;;4.00;1.00;;;;;;4988386;28;20216;-63
2021/01/25 09:49:53;;;;;;;16.20;10.63;;;4.20;1.00;;;;;;4988986;28;20192;-63
2021/01/25 09:52:19;;;;;;;16.77;9.90;;;4.40;1.00;;;;;;4985555;28;20290;-63
2021/01/25 09:54:44;;;;;;;14.03;9.63;;;4.60;1.00;;;;;;4987661;28;20184;-63
2021/01/25 09:57:10;;;;;;;14.27;9.57;;;4.70;1.00;;;;;;4984202;28;20436;-63
2021/01/25 09:59:35;;;;;;;12.60;9.30;;;5.00;1.00;;;;;;4992201;28;20188;-63
2021/01/25 10:02:01;;;;;;;10.37;8.10;;;5.80;1.00;;;;;;4992166;28;20655;-63
2021/01/25 10:04:27;;;;;;;12.20;8.37;;;6.60;1.00;;;;;;4992387;28;20622;-63
2021/01/25 10:06:52;;;;;;;10.20;7.57;;;7.50;99.90;;;;;;4991366;28;20211;-63
2021/01/25 10:09:18;;;;;;;10.20;8.00;;;8.40;1.00;;;;;;4992451;28;20180;-64
2021/01/25 10:11:44;;;;;;;10.27;8.30;;;9.30;99.90;;;;;;4984310;28;20200;-64
2021/01/25 10:14:10;;;;;;;8.20;7.30;;;9.50;1.00;;;;;;4992139;28;20176;-64
2021/01/25 10:16:35;;;;;;;10.47;8.93;;;9.50;1.00;;;;;;4987513;28;20509;-64
2021/01/25 10:19:01;;;;;;;10.73;9.30;;;9.50;10.00;;;;;;4991640;28;20533;-64
2021/01/25 10:21:26;;;;;;;9.47;8.47;;;9.70;40.90;;;;;;4991951;28;20192;-64
2021/01/25 10:23:53;;;;;;;8.47;7.60;;;10.10;1.00;;;;;;4991279;28;20186;-64
2021/01/25 10:26:20;;;;;;;9.77;8.47;;;10.20;1.00;;;;;;4991773;28;20211;-64
2021/01/25 10:28:47;;;;;;;9.27;8.27;;;10.80;1.00;;;;;;4983888;28;20458;-64
2021/01/25 10:31:15;;;;;;;9.30;7.73;;;11.30;1.00;;;;;;4992121;28;20514;-64
2021/01/25 10:33:40;;;;;;;11.23;9.17;;;12.00;1.00;;;;;;4991844;28;20430;-64
2021/01/25 10:36:06;;;;;;;10.00;8.20;;;12.20;99.90;;;;;;4992537;28;20425;-64
2021/01/25 10:38:32;;;;;;;10.20;9.10;;;12.10;99.90;;;;;;4990458;28;21023;-64
2021/01/25 10:40:58;;;;;;;9.40;8.23;;;12.30;99.90;;;;;;4992010;28;20574;-64
2021/01/25 10:43:23;;;;;;;10.90;8.37;;;12.20;99.90;;;;;;4991360;28;20458;-64
2021/01/25 10:45:49;;;;;;;9.87;8.80;;;12.10;99.90;;;;;;4991273;28;20204;-63
2021/01/25 10:48:14;;;;;;;9.10;8.20;;;12.20;99.90;;;;;;4992279;28;20187;-64
2021/01/25 10:50:40;;;;;;;9.57;8.10;;;11.90;99.90;;;;;;4991172;28;20195;-64
2021/01/25 10:53:05;;;;;;;10.90;8.00;;;11.30;99.90;;;;;;4991663;28;20229;-64
2021/01/25 10:55:31;;;;;;;11.07;9.17;;;10.70;99.90;;;;;;4991327;28;20659;-64
2021/01/25 10:57:57;;;;;;;10.80;9.60;;;10.30;1.00;;;;;;4991516;28;20187;-63
2021/01/25 11:00:24;;;;;;;12.40;9.90;;;9.90;1.00;;;;;;4987656;28;20184;-63
2021/01/25 11:02:50;;;;;;;12.00;10.37;;;9.30;1.00;;;;;;4990733;28;20674;-63
2021/01/25 11:05:18;;;;;;;11.47;8.70;;;8.70;1.00;;;;;;4991946;28;20905;-64
2021/01/25 11:07:44;;;;;;;11.70;9.67;;;8.40;1.00;;;;;;4988719;28;20504;-63
2021/01/25 11:10:14;;;;;;;12.63;9.53;;;8.40;99.90;;;;;;4990694;28;20411;-63
2021/01/25 11:12:39;;;;;;;11.50;9.60;;;7.90;1.00;;;;;;4991423;28;20506;-64
2021/01/25 11:15:06;;;;;;;12.03;10.27;;;7.50;99.90;;;;;;4990779;28;20545;-64
2021/01/25 11:17:32;;;;;;;12.67;10.13;;;7.10;99.90;;;;;;4991657;28;20231;-64
2021/01/25 11:19:59;;;;;;;13.10;10.37;;;6.70;45.50;;;;;;5022218;28;20441;-64
2021/01/25 11:22:24;;;;;;;14.80;10.93;;;6.30;99.90;;;;;;4991305;28;20821;-64
2021/01/25 11:24:50;;;;;;;13.97;9.63;;;6.10;1.00;;;;;;4989317;28;20440;-64
2021/01/25 11:27:17;;;;;;;15.33;10.10;;;5.90;1.00;;;;;;4991426;28;20679;-64
2021/01/25 11:29:43;;;;;;;10.60;9.02;;;6.00;1.00;;;;;;5006361;28;20229;-64
2021/01/25 11:32:10;;;;;;;11.80;8.93;;;6.00;1.00;;;;;;4990262;28;20181;-64
2021/01/25 11:34:37;;;;;;;12.60;8.82;;;6.20;1.00;;;;;;4991776;28;20158;-64
2021/01/25 11:37:02;;;;;;;9.80;8.33;;;6.50;99.90;;;;;;4990917;28;20303;-64
2021/01/25 11:39:30;;;;;;;11.00;8.63;;;6.80;99.90;;;;;;4991466;28;20486;-63
2021/01/25 11:41:57;;;;;;;10.83;8.87;;;6.80;26.00;;;;;;4990356;28;20940;-63
2021/01/25 11:44:23;;;;;;;7.90;7.10;;;6.90;1.00;;;;;;4990614;28;20982;-63
2021/01/25 11:46:49;;;;;;;9.50;7.70;;;6.70;99.90;;;;;;4988807;28;20226;-63
2021/01/25 11:49:15;;;;;;;11.77;8.30;;;6.60;99.90;;;;;;4990083;28;20426;-63
2021/01/25 11:51:41;;;;;;;11.83;9.30;;;6.60;1.00;;;;;;4990744;28;20430;-63
2021/01/25 11:54:07;;;;;;;12.07;8.80;;;6.80;1.00;;;;;;4990926;28;20425;-63
2021/01/25 11:56:32;;;;;;;9.37;8.30;;;6.80;99.90;;;;;;4990832;28;20483;-63
2021/01/25 11:58:58;;;;;;;10.70;8.50;;;6.70;1.00;;;;;;4988290;28;20214;-64
2021/01/25 12:01:23;;;;;;;8.87;7.93;;;6.90;78.00;;;;;;4989672;28;20188;-63
2021/01/25 12:03:49;;;;;;;11.27;8.67;;;7.20;1.00;;;;;;4990467;28;20240;-63
2021/01/25 12:06:14;;;;;;;9.70;7.50;;;7.40;1.00;;;;;;4989693;28;20214;-63
2021/01/25 12:08:40;;;;;;;12.73;7.77;;;7.60;1.00;;;;;;4990573;28;20326;-64
2021/01/25 12:11:07;;;;;;;8.63;7.73;;;8.00;1.00;;;;;;4988978;28;20515;-64
2021/01/25 12:13:32;;;;;;;9.73;7.63;;;8.60;80.40;;;;;;4989672;28;20195;-62
2021/01/25 12:16:01;;;;;;;8.23;7.33;;;9.30;1.00;;;;;;4989545;28;20487;-64
2021/01/25 12:18:27;;;;;;;8.57;7.67;;;9.80;1.00;;;;;;4988273;28;20623;-64
2021/01/25 12:20:56;;;;;;;9.00;8.00;;;10.50;1.00;;;;;;4980435;28;20431;-64
2021/01/25 12:23:22;;;;;;;9.70;8.80;;;10.30;1.00;;;;;;4989175;28;20224;-64
2021/01/25 12:25:48;;;;;;;9.30;8.30;;;10.60;99.90;;;;;;4982881;28;20462;-65
2021/01/25 12:28:14;;;;;;;9.87;8.20;;;10.60;99.90;;;;;;4988411;28;20457;-63
2021/01/25 12:30:40;;;;;;;8.73;7.83;;;11.20;99.90;;;;;;4987622;28;20431;-62
2021/01/25 12:33:05;;;;;;;9.37;8.40;;;11.50;99.90;;;;;;4987937;28;20229;-63
2021/01/25 12:35:31;;;;;;;8.50;7.70;;;12.30;99.90;;;;;;4988215;28;20242;-64
2021/01/25 12:37:58;;;;;;;10.90;8.43;;;12.60;99.90;;;;;;4988477;28;20202;-63
2021/01/25 12:40:30;;;;;;;9.23;8.30;;;12.80;99.90;;;;;;5070425;28;20620;-64